Time;durP1;ratioP1;P1;durP2;ratioP2;P2;SDS_P1;SDS_P2;PMS_P1;PMS_P2;Temp;Humidity;BMP_temperature;BMP_pressure;BME280_temperature;BME280_humidity;BME280_pressure;Samples;Min_cycle;Max_cycle;Signal;HPM_P1;HPM_P2
2023/03/06 00:02:11;;;;;;;;;;;18.00;60.90;;;;;;5039427;28;1320;-70
2023/03/06 00:04:37;;;;;;;;;;;18.00;61.00;;;;;;5042934;28;785;-70
2023/03/06 00:07:02;;;;;;;;;;;18.00;61.00;;;;;;5042503;28;915;-70
2023/03/06 00:09:28;;;;;;;;;;;18.00;61.00;;;;;;5041100;28;1006;-69
2023/03/06 00:11:53;;;;;;;;;;;18.00;61.00;;;;;;5039533;28;1922;-71
2023/03/06 00:14:18;;;;;;;;;;;18.00;61.00;;;;;;5039728;28;924;-69
2023/03/06 00:16:44;;;;;;;;;;;18.00;61.00;;;;;;5039415;28;925;-70
2023/03/06 00:19:09;;;;;;;;;;;18.00;61.10;;;;;;5039737;28;880;-70
2023/03/06 00:21:35;;;;;;;;;;;18.00;61.10;;;;;;5036892;28;1249;-69
2023/03/06 00:24:00;;;;;;;;;;;17.90;61.10;;;;;;5039771;28;805;-70
2023/03/06 00:26:26;;;;;;;;;;;17.90;61.10;;;;;;5037974;28;942;-70
2023/03/06 00:28:51;;;;;;;;;;;17.90;61.10;;;;;;5074007;28;827;-70
2023/03/06 00:31:17;;;;;;;;;;;17.90;61.10;;;;;;5036886;28;1983;-70
2023/03/06 00:33:42;;;;;;;;;;;17.90;61.10;;;;;;5071316;28;1042;-70
2023/03/06 00:36:08;;;;;;;;;;;17.90;61.10;;;;;;5037364;28;786;-70
2023/03/06 00:38:34;;;;;;;;;;;17.90;61.10;;;;;;5039837;28;1322;-70
2023/03/06 00:41:05;;;;;;;;;;;17.90;61.10;;;;;;5042703;28;875;-70
2023/03/06 00:43:31;;;;;;;;;;;17.90;61.10;;;;;;5071891;28;1311;-70
2023/03/06 00:45:56;;;;;;;;;;;17.90;61.20;;;;;;5040660;28;1177;-70
2023/03/06 00:48:21;;;;;;;;;;;17.90;61.20;;;;;;5040563;28;876;-70
2023/03/06 00:50:47;;;;;;;;;;;17.90;61.20;;;;;;5037863;28;1906;-70
2023/03/06 00:53:12;;;;;;;;;;;17.90;61.20;;;;;;5034657;28;1253;-70
2023/03/06 00:55:38;;;;;;;;;;;17.90;61.20;;;;;;5039122;28;777;-70
2023/03/06 00:58:03;;;;;;;;;;;17.90;61.20;;;;;;5037992;28;1038;-70
2023/03/06 01:00:29;;;;;;;;;;;17.90;61.20;;;;;;5038687;28;848;-69
2023/03/06 01:02:54;;;;;;;;;;;17.90;61.20;;;;;;5037807;28;1389;-69
2023/03/06 01:05:20;;;;;;;;;;;17.90;61.20;;;;;;5040416;28;871;-70
2023/03/06 01:07:45;;;;;;;;;;;17.90;61.20;;;;;;5042235;28;848;-69
2023/03/06 01:10:11;;;;;;;;;;;17.90;61.20;;;;;;5041340;28;781;-69
2023/03/06 01:12:36;;;;;;;;;;;17.90;61.30;;;;;;5036826;28;1256;-69
2023/03/06 01:15:02;;;;;;;;;;;17.90;61.30;;;;;;5040380;28;901;-69
2023/03/06 01:17:28;;;;;;;;;;;17.80;61.20;;;;;;5044137;28;959;-68
2023/03/06 01:19:53;;;;;;;;;;;17.80;61.20;;;;;;5038042;28;793;-69
2023/03/06 01:22:19;;;;;;;;;;;17.80;61.20;;;;;;5036935;28;1290;-69
2023/03/06 01:24:44;;;;;;;;;;;17.80;61.30;;;;;;5036739;28;1264;-69
2023/03/06 01:27:09;;;;;;;;;;;17.80;61.20;;;;;;5043598;28;1188;-70
2023/03/06 01:29:35;;;;;;;;;;;17.80;61.20;;;;;;5042450;28;1177;-70
2023/03/06 01:32:00;;;;;;;;;;;17.80;61.30;;;;;;5045064;28;1886;-69
2023/03/06 01:34:26;;;;;;;;;;;17.80;61.30;;;;;;5041422;28;1338;-71
2023/03/06 01:36:51;;;;;;;;;;;17.80;61.30;;;;;;5043068;28;1267;-69
2023/03/06 01:39:17;;;;;;;;;;;17.80;61.30;;;;;;5074344;28;1402;-70
2023/03/06 01:41:42;;;;;;;;;;;17.80;61.30;;;;;;5045024;28;1512;-70
2023/03/06 01:44:09;;;;;;;;;;;17.80;61.40;;;;;;5039721;28;1332;-69
2023/03/06 01:46:40;;;;;;;;;;;17.80;61.30;;;;;;5042403;28;1672;-71
2023/03/06 01:49:24;;;;;;;;;;;17.80;61.30;;;;;;5041766;28;1394;-71
2023/03/06 01:51:53;;;;;;;;;;;17.80;61.40;;;;;;5041811;28;1961;-70
2023/03/06 01:54:21;;;;;;;;;;;17.80;61.30;;;;;;5039063;28;1323;-70
2023/03/06 01:56:46;;;;;;;;;;;17.80;61.40;;;;;;5069465;28;1268;-70
2023/03/06 01:59:12;;;;;;;;;;;17.80;61.40;;;;;;5071454;28;1313;-71
2023/03/06 02:01:38;;;;;;;;;;;17.70;61.30;;;;;;5071867;28;1366;-71
2023/03/06 02:04:04;;;;;;;;;;;17.80;61.40;;;;;;5070005;28;1344;-70
2023/03/06 02:06:29;;;;;;;;;;;17.80;61.40;;;;;;5068018;28;1421;-70
2023/03/06 02:08:55;;;;;;;;;;;17.80;61.40;;;;;;5040470;28;1257;-70
2023/03/06 02:11:21;;;;;;;;;;;17.70;61.30;;;;;;5043636;28;1910;-70
2023/03/06 02:13:46;;;;;;;;;;;17.80;61.40;;;;;;5043568;28;1351;-69
2023/03/06 02:16:12;;;;;;;;;;;17.70;61.30;;;;;;5073401;28;1532;-69
2023/03/06 02:18:39;;;;;;;;;;;17.70;61.40;;;;;;5048342;28;1378;-69
2023/03/06 02:21:05;;;;;;;;;;;17.70;61.40;;;;;;5073695;28;1383;-68
2023/03/06 02:23:41;;;;;;;;;;;17.70;61.40;;;;;;5043990;28;1345;-70
2023/03/06 02:26:06;;;;;;;;;;;17.70;61.40;;;;;;5044363;28;1422;-70
2023/03/06 02:28:32;;;;;;;;;;;17.70;61.40;;;;;;5073662;28;1279;-68
2023/03/06 02:30:57;;;;;;;;;;;17.70;61.40;;;;;;5041509;28;1902;-67
2023/03/06 02:33:24;;;;;;;;;;;17.70;61.40;;;;;;5044660;28;1417;-68
2023/03/06 02:35:53;;;;;;;;;;;17.70;61.40;;;;;;5073135;28;1422;-69
2023/03/06 02:38:19;;;;;;;;;;;17.70;61.40;;;;;;5043481;28;1335;-71
2023/03/06 02:40:46;;;;;;;;;;;17.70;61.40;;;;;;5046007;28;1349;-69
2023/03/06 02:43:12;;;;;;;;;;;17.70;61.40;;;;;;5040534;28;1360;-69
2023/03/06 02:45:43;;;;;;;;;;;17.70;61.40;;;;;;5045537;28;1440;-68
2023/03/06 02:48:10;;;;;;;;;;;17.70;61.50;;;;;;5047699;28;1382;-70
2023/03/06 02:50:36;;;;;;;;;;;17.70;61.50;;;;;;5045419;28;1929;-70
2023/03/06 02:53:01;;;;;;;;;;;17.70;61.50;;;;;;5044369;28;1643;-70
2023/03/06 02:55:27;;;;;;;;;;;17.70;61.50;;;;;;5044510;28;1786;-70
2023/03/06 02:57:52;;;;;;;;;;;17.70;61.50;;;;;;5044960;28;1335;-70
2023/03/06 03:00:18;;;;;;;;;;;17.70;61.50;;;;;;5040526;28;821;-71
2023/03/06 03:02:44;;;;;;;;;;;17.70;61.60;;;;;;5039685;28;1332;-71
2023/03/06 03:05:09;;;;;;;;;;;17.70;61.50;;;;;;5038283;28;910;-71
2023/03/06 03:07:35;;;;;;;;;;;17.70;61.50;;;;;;5042137;28;894;-71
2023/03/06 03:10:00;;;;;;;;;;;17.60;61.50;;;;;;5074146;28;836;-71
2023/03/06 03:12:27;;;;;;;;;;;17.70;61.50;;;;;;5074428;28;1959;-71
2023/03/06 03:14:53;;;;;;;;;;;17.70;62.30;;;;;;5038422;28;856;-71
2023/03/06 03:17:19;;;;;;;;;;;17.70;61.50;;;;;;5039766;28;825;-71
2023/03/06 03:19:44;;;;;;;;;;;17.70;61.50;;;;;;5043702;28;801;-71
2023/03/06 03:22:10;;;;;;;;;;;17.70;62.30;;;;;;5041967;28;1252;-69
2023/03/06 03:24:35;;;;;;;;;;;17.70;61.60;;;;;;5042470;28;856;-70
2023/03/06 03:27:01;;;;;;;;;;;17.60;61.60;;;;;;5042132;28;889;-70
2023/03/06 03:29:26;;;;;;;;;;;17.60;61.50;;;;;;5040102;28;830;-69
2023/03/06 03:31:52;;;;;;;;;;;17.60;61.50;;;;;;5039957;28;1898;-70
2023/03/06 03:34:17;;;;;;;;;;;17.70;61.50;;;;;;5042499;28;901;-70
2023/03/06 03:36:43;;;;;;;;;;;17.60;61.60;;;;;;5040618;28;1074;-70
2023/03/06 03:39:09;;;;;;;;;;;17.60;61.50;;;;;;5078289;28;998;-69
2023/03/06 03:41:34;;;;;;;;;;;17.60;61.50;;;;;;5040561;28;1317;-68
2023/03/06 03:44:00;;;;;;;;;;;17.60;61.50;;;;;;5040163;28;933;-70
2023/03/06 03:46:25;;;;;;;;;;;17.60;61.60;;;;;;5040612;28;1172;-70
2023/03/06 03:48:51;;;;;;;;;;;17.60;61.60;;;;;;5072712;28;823;-70
2023/03/06 03:51:16;;;;;;;;;;;17.60;61.60;;;;;;5038639;28;1898;-70
2023/03/06 03:53:42;;;;;;;;;;;17.60;61.60;;;;;;5039070;28;946;-70
2023/03/06 03:56:07;;;;;;;;;;;17.60;61.60;;;;;;5074869;28;912;-70
2023/03/06 03:58:33;;;;;;;;;;;17.60;61.60;;;;;;5041049;28;1030;-68
2023/03/06 04:00:58;;;;;;;;;;;17.60;61.60;;;;;;5041349;28;868;-68
2023/03/06 04:03:24;;;;;;;;;;;17.60;61.60;;;;;;5039523;28;1342;-69
2023/03/06 04:05:52;;;;;;;;;;;17.60;61.60;;;;;;5039246;28;884;-68
2023/03/06 04:08:18;;;;;;;;;;;17.60;62.30;;;;;;5036653;28;824;-68
2023/03/06 04:10:43;;;;;;;;;;;17.60;61.60;;;;;;5039325;28;1972;-68
2023/03/06 04:13:09;;;;;;;;;;;17.60;61.60;;;;;;5039652;28;1259;-68
2023/03/06 04:15:35;;;;;;;;;;;17.60;61.60;;;;;;5071547;28;813;-68
2023/03/06 04:18:00;;;;;;;;;;;17.60;61.60;;;;;;5036665;28;864;-68
2023/03/06 04:20:26;;;;;;;;;;;17.60;61.60;;;;;;5039790;28;872;-68
2023/03/06 04:22:52;;;;;;;;;;;17.60;61.80;;;;;;5040693;28;1319;-69
2023/03/06 04:25:17;;;;;;;;;;;17.50;61.60;;;;;;5041707;28;927;-71
2023/03/06 04:27:43;;;;;;;;;;;17.60;61.60;;;;;;5070975;28;887;-70
2023/03/06 04:30:09;;;;;;;;;;;17.60;61.60;;;;;;5038519;28;872;-69
2023/03/06 04:32:34;;;;;;;;;;;17.60;61.60;;;;;;5076842;28;1897;-70
2023/03/06 04:34:59;;;;;;;;;;;17.60;61.70;;;;;;5040848;28;1193;-70
2023/03/06 04:37:25;;;;;;;;;;;17.60;61.70;;;;;;5045919;28;1414;-70
2023/03/06 04:39:50;;;;;;;;;;;17.60;61.70;;;;;;5037882;28;1607;-70
2023/03/06 04:42:16;;;;;;;;;;;17.60;61.70;;;;;;5059276;28;1262;-70
2023/03/06 04:44:41;;;;;;;;;;;17.60;61.70;;;;;;5037781;28;912;-70
2023/03/06 04:47:07;;;;;;;;;;;17.60;61.60;;;;;;5070685;28;1082;-70
2023/03/06 04:49:32;;;;;;;;;;;17.60;61.70;;;;;;5072686;28;1136;-70
2023/03/06 04:51:58;;;;;;;;;;;17.60;61.70;;;;;;5036992;28;1965;-71
2023/03/06 04:54:23;;;;;;;;;;;17.60;61.70;;;;;;5040436;28;841;-70
2023/03/06 04:56:49;;;;;;;;;;;17.60;61.70;;;;;;5037562;28;863;-70
2023/03/06 04:59:14;;;;;;;;;;;17.60;61.70;;;;;;5037734;28;1402;-70
2023/03/06 05:01:39;;;;;;;;;;;17.60;61.70;;;;;;5041217;28;1338;-70
2023/03/06 05:04:05;;;;;;;;;;;17.50;61.70;;;;;;5041642;28;908;-70
2023/03/06 05:06:30;;;;;;;;;;;17.50;61.70;;;;;;5072587;28;863;-69
2023/03/06 05:08:56;;;;;;;;;;;17.60;61.70;;;;;;5037785;28;835;-70
2023/03/06 05:11:21;;;;;;;;;;;17.60;61.70;;;;;;5039503;28;1890;-70
2023/03/06 05:13:48;;;;;;;;;;;17.60;61.60;;;;;;5038765;28;857;-69
2023/03/06 05:16:13;;;;;;;;;;;17.60;61.60;;;;;;5040388;28;820;-68
2023/03/06 05:18:39;;;;;;;;;;;17.60;61.40;;;;;;5034905;28;950;-70
2023/03/06 05:21:04;;;;;;;;;;;17.70;61.40;;;;;;5036322;28;1079;-70
2023/03/06 05:23:30;;;;;;;;;;;17.70;61.20;;;;;;5040980;28;1186;-69
2023/03/06 05:25:56;;;;;;;;;;;17.70;61.10;;;;;;5070246;28;887;-70
2023/03/06 05:28:21;;;;;;;;;;;17.80;61.00;;;;;;5037398;28;950;-69
2023/03/06 05:30:47;;;;;;;;;;;17.80;60.90;;;;;;5071854;28;1890;-69
2023/03/06 05:33:12;;;;;;;;;;;17.80;60.70;;;;;;5039628;28;1261;-70
2023/03/06 05:35:38;;;;;;;;;;;17.80;60.60;;;;;;5040004;28;1786;-70
2023/03/06 05:38:03;;;;;;;;;;;17.90;60.60;;;;;;5042097;28;1435;-70
2023/03/06 05:40:29;;;;;;;;;;;17.90;60.40;;;;;;5039223;28;804;-70
2023/03/06 05:42:54;;;;;;;;;;;17.90;60.30;;;;;;5037573;28;1287;-71
2023/03/06 05:45:20;;;;;;;;;;;17.90;60.30;;;;;;5037384;28;915;-70
2023/03/06 05:47:45;;;;;;;;;;;18.00;60.30;;;;;;5069804;28;951;-70
2023/03/06 05:50:12;;;;;;;;;;;18.00;60.20;;;;;;5038663;28;797;-71
2023/03/06 05:52:41;;;;;;;;;;;18.00;60.10;;;;;;5038447;28;1971;-70
2023/03/06 05:55:07;;;;;;;;;;;18.00;60.00;;;;;;5040331;28;903;-70
2023/03/06 05:57:32;;;;;;;;;;;18.00;60.00;;;;;;5039980;28;1647;-70
2023/03/06 05:59:58;;;;;;;;;;;18.00;60.00;;;;;;5034541;28;1923;-69
2023/03/06 06:02:23;;;;;;;;;;;18.00;59.90;;;;;;5037909;28;1777;-68
2023/03/06 06:04:48;;;;;;;;;;;18.00;59.90;;;;;;5042865;28;2046;-67
2023/03/06 06:07:14;;;;;;;;;;;18.00;59.90;;;;;;5040545;28;1335;-68
2023/03/06 06:09:42;;;;;;;;;;;18.00;59.80;;;;;;5039859;28;1533;-68
2023/03/06 06:12:07;;;;;;;;;;;18.00;59.80;;;;;;5067064;28;1897;-68
2023/03/06 06:14:33;;;;;;;;;;;18.10;59.90;;;;;;5039684;28;883;-68
2023/03/06 06:16:58;;;;;;;;;;;18.10;59.80;;;;;;5071244;28;788;-69
2023/03/06 06:19:24;;;;;;;;;;;18.10;59.80;;;;;;5039069;28;805;-69
2023/03/06 06:21:51;;;;;;;;;;;18.10;59.80;;;;;;5057456;28;1509;-68
2023/03/06 06:24:17;;;;;;;;;;;18.10;59.80;;;;;;5071980;28;899;-70
2023/03/06 06:26:42;;;;;;;;;;;18.00;59.80;;;;;;5034593;28;824;-69
2023/03/06 06:29:08;;;;;;;;;;;18.10;59.90;;;;;;5068590;28;859;-68
2023/03/06 06:31:35;;;;;;;;;;;18.10;59.80;;;;;;5033366;28;1906;-68
2023/03/06 06:34:01;;;;;;;;;;;18.10;59.90;;;;;;5036202;28;1226;-66
2023/03/06 06:36:27;;;;;;;;;;;18.00;59.80;;;;;;5035268;28;1475;-67
2023/03/06 06:38:52;;;;;;;;;;;18.00;59.90;;;;;;5039679;28;1523;-67
2023/03/06 06:41:17;;;;;;;;;;;18.00;59.90;;;;;;5036714;28;1322;-67
2023/03/06 06:43:43;;;;;;;;;;;18.00;60.60;;;;;;5037895;28;891;-68
2023/03/06 06:46:08;;;;;;;;;;;18.00;59.90;;;;;;5036760;28;1018;-68
2023/03/06 06:48:36;;;;;;;;;;;18.00;59.90;;;;;;5065994;28;804;-67
2023/03/06 06:51:02;;;;;;;;;;;18.00;59.90;;;;;;5037708;28;1930;-67
2023/03/06 06:53:27;;;;;;;;;;;18.00;60.00;;;;;;5070152;28;1302;-67
2023/03/06 06:55:53;;;;;;;;;;;18.00;60.00;;;;;;5037667;28;916;-67
2023/03/06 06:58:18;;;;;;;;;;;18.00;60.00;;;;;;5035673;28;2021;-66
2023/03/06 07:00:44;;;;;;;;;;;18.00;60.00;;;;;;5033622;28;1074;-67
2023/03/06 07:03:10;;;;;;;;;;;18.00;60.00;;;;;;5043093;28;1260;-67
2023/03/06 07:05:36;;;;;;;;;;;18.00;60.10;;;;;;5037960;28;1067;-66
2023/03/06 07:08:01;;;;;;;;;;;17.90;60.00;;;;;;5040736;28;1274;-67
2023/03/06 07:10:26;;;;;;;;;;;17.90;60.10;;;;;;5071618;28;1969;-68
2023/03/06 07:12:53;;;;;;;;;;;17.90;60.10;;;;;;5042558;28;1360;-68
2023/03/06 07:15:18;;;;;;;;;;;17.90;60.10;;;;;;5043485;28;893;-69
2023/03/06 07:17:44;;;;;;;;;;;17.90;60.20;;;;;;5043219;28;860;-70
2023/03/06 07:20:10;;;;;;;;;;;17.90;60.20;;;;;;5039695;28;872;-70
2023/03/06 07:22:35;;;;;;;;;;;17.90;60.20;;;;;;5040761;28;1263;-70
2023/03/06 07:25:02;;;;;;;;;;;17.90;60.20;;;;;;5074322;28;813;-70
2023/03/06 07:27:27;;;;;;;;;;;17.90;60.20;;;;;;5042911;28;900;-70
2023/03/06 07:29:53;;;;;;;;;;;17.90;60.30;;;;;;5038650;28;924;-69
2023/03/06 07:32:19;;;;;;;;;;;17.90;60.30;;;;;;5041445;28;1971;-70
2023/03/06 07:34:45;;;;;;;;;;;17.90;60.30;;;;;;5037735;28;792;-69
2023/03/06 07:37:10;;;;;;;;;;;17.90;60.30;;;;;;5039934;28;1333;-69
2023/03/06 07:39:36;;;;;;;;;;;17.80;60.30;;;;;;5071118;28;859;-70
2023/03/06 07:42:01;;;;;;;;;;;17.80;60.30;;;;;;5038414;28;1287;-71
2023/03/06 07:44:27;;;;;;;;;;;17.80;60.40;;;;;;5040045;28;1285;-71
2023/03/06 07:46:52;;;;;;;;;;;17.90;60.50;;;;;;5041948;28;1313;-69
2023/03/06 07:49:18;;;;;;;;;;;17.80;60.40;;;;;;5038231;28;830;-71
2023/03/06 07:51:43;;;;;;;;;;;17.80;60.40;;;;;;5069499;28;1897;-69
2023/03/06 07:54:09;;;;;;;;;;;17.80;60.50;;;;;;5041591;28;876;-69
2023/03/06 07:56:34;;;;;;;;;;;17.80;60.50;;;;;;5039067;28;1422;-71
2023/03/06 07:59:00;;;;;;;;;;;17.80;60.50;;;;;;5038968;28;1289;-71
2023/03/06 08:01:25;;;;;;;;;;;17.80;60.50;;;;;;5037802;28;1294;-71
2023/03/06 08:03:51;;;;;;;;;;;17.80;60.50;;;;;;5038706;28;828;-72
2023/03/06 08:06:24;;;;;;;;;;;17.80;60.60;;;;;;5070997;28;915;-71
2023/03/06 08:08:49;;;;;;;;;;;17.80;60.60;;;;;;5069466;28;1065;-70
2023/03/06 08:11:15;;;;;;;;;;;17.80;60.70;;;;;;5046736;28;1973;-71
2023/03/06 08:13:41;;;;;;;;;;;17.80;60.70;;;;;;5044400;28;1223;-71
2023/03/06 08:16:06;;;;;;;;;;;17.80;60.70;;;;;;5073551;28;1340;-72
2023/03/06 08:18:32;;;;;;;;;;;17.80;60.70;;;;;;5073891;28;1566;-71
2023/03/06 08:21:01;;;;;;;;;;;17.70;60.70;;;;;;5042173;28;1264;-71
2023/03/06 08:23:27;;;;;;;;;;;17.70;60.70;;;;;;5041525;28;1305;-72
2023/03/06 08:25:59;;;;;;;;;;;17.70;60.70;;;;;;5042261;28;1287;-71
2023/03/06 08:28:24;;;;;;;;;;;17.70;60.70;;;;;;5042666;28;1202;-70
2023/03/06 08:30:50;;;;;;;;;;;17.70;60.70;;;;;;5041384;28;1905;-71
2023/03/06 08:33:15;;;;;;;;;;;17.70;60.80;;;;;;5040819;28;1238;-70
2023/03/06 08:35:41;;;;;;;;;;;17.70;60.80;;;;;;5036933;28;1015;-69
2023/03/06 08:38:06;;;;;;;;;;;17.70;60.80;;;;;;5038295;28;1244;-71
2023/03/06 08:40:32;;;;;;;;;;;17.70;60.80;;;;;;5069135;28;884;-70
2023/03/06 08:42:57;;;;;;;;;;;17.70;60.90;;;;;;5069172;28;1370;-71
2023/03/06 08:45:22;;;;;;;;;;;17.70;60.80;;;;;;5039732;28;923;-71
2023/03/06 08:47:48;;;;;;;;;;;17.70;60.90;;;;;;5040365;28;939;-70
2023/03/06 08:50:13;;;;;;;;;;;17.70;60.90;;;;;;5040359;28;864;-71
2023/03/06 08:52:39;;;;;;;;;;;17.70;60.80;;;;;;5042524;28;1902;-71
2023/03/06 08:55:05;;;;;;;;;;;17.70;60.80;;;;;;5037737;28;860;-71
2023/03/06 08:57:30;;;;;;;;;;;17.70;60.80;;;;;;5041247;28;857;-71
2023/03/06 08:59:56;;;;;;;;;;;17.70;60.80;;;;;;5041341;28;875;-71
2023/03/06 09:02:21;;;;;;;;;;;17.70;60.70;;;;;;5038703;28;1299;-70
2023/03/06 09:04:46;;;;;;;;;;;17.80;60.70;;;;;;5040146;28;781;-70
2023/03/06 09:07:12;;;;;;;;;;;17.70;60.60;;;;;;5040698;28;912;-72
2023/03/06 09:09:37;;;;;;;;;;;17.70;60.50;;;;;;5036694;28;1506;-71
2023/03/06 09:12:03;;;;;;;;;;;17.80;60.50;;;;;;5039911;28;1973;-71
2023/03/06 09:14:29;;;;;;;;;;;17.80;60.50;;;;;;5043036;28;851;-71
2023/03/06 09:16:55;;;;;;;;;;;17.80;60.40;;;;;;5068965;28;887;-72
2023/03/06 09:19:20;;;;;;;;;;;17.80;60.40;;;;;;5041031;28;781;-73
2023/03/06 09:21:47;;;;;;;;;;;17.80;60.30;;;;;;5038653;28;1363;-71
2023/03/06 09:24:12;;;;;;;;;;;17.80;60.30;;;;;;5038081;28;809;-70
2023/03/06 09:26:38;;;;;;;;;;;17.80;60.20;;;;;;5042725;28;928;-70
2023/03/06 09:29:03;;;;;;;;;;;17.80;60.20;;;;;;5038833;28;809;-71
2023/03/06 09:31:30;;;;;;;;;;;17.80;60.20;;;;;;5038404;28;1898;-72
2023/03/06 09:33:56;;;;;;;;;;;17.80;60.20;;;;;;5040660;28;853;-71
2023/03/06 09:36:21;;;;;;;;;;;17.90;60.20;;;;;;5037853;28;1042;-70
2023/03/06 09:38:48;;;;;;;;;;;17.90;60.20;;;;;;5040245;28;1414;-70
2023/03/06 09:41:33;;;;;;;;;;;17.90;60.10;;;;;;5066137;28;1335;-69
2023/03/06 09:44:03;;;;;;;;;;;17.90;60.10;;;;;;5070465;28;899;-69
2023/03/06 09:46:35;;;;;;;;;;;17.90;60.10;;;;;;5036231;28;875;-69
2023/03/06 09:49:19;;;;;;;;;;;17.90;60.10;;;;;;5039211;28;975;-68
2023/03/06 09:51:48;;;;;;;;;;;17.90;60.00;;;;;;5037956;28;1902;-68
2023/03/06 09:54:14;;;;;;;;;;;17.90;60.00;;;;;;5071595;28;831;-66
2023/03/06 09:56:43;;;;;;;;;;;17.90;60.00;;;;;;5038786;28;876;-68
2023/03/06 09:59:12;;;;;;;;;;;17.90;60.00;;;;;;5040922;28;1721;-68
2023/03/06 10:01:39;;;;;;;;;;;17.90;60.00;;;;;;5069184;28;1270;-68
2023/03/06 10:04:04;;;;;;;;;;;17.90;59.90;;;;;;5039582;28;770;-68
2023/03/06 10:06:32;;;;;;;;;;;17.90;59.90;;;;;;5036975;28;918;-68
2023/03/06 10:09:17;;;;;;;;;;;17.90;59.90;;;;;;5070240;28;887;-68
2023/03/06 10:12:02;;;;;;;;;;;17.90;59.90;;;;;;5073630;28;1910;-69
2023/03/06 10:14:34;;;;;;;;;;;17.90;59.90;;;;;;5040531;28;816;-68
2023/03/06 10:16:59;;;;;;;;;;;18.00;59.90;;;;;;5038401;28;884;-74
2023/03/06 10:19:29;;;;;;;;;;;17.90;59.80;;;;;;5070892;28;856;-68
2023/03/06 10:21:57;;;;;;;;;;;18.00;59.90;;;;;;5069232;28;1250;-69
2023/03/06 10:24:49;;;;;;;;;;;18.00;59.90;;;;;;5035381;28;855;-68
2023/03/06 10:27:22;;;;;;;;;;;18.00;59.90;;;;;;5037707;28;1122;-68
2023/03/06 10:29:48;;;;;;;;;;;18.00;59.90;;;;;;5041217;28;1097;-68
2023/03/06 10:32:37;;;;;;;;;;;17.90;59.80;;;;;;5036780;28;1960;-68
2023/03/06 10:35:03;;;;;;;;;;;17.90;59.80;;;;;;5050099;28;1312;-69
2023/03/06 10:37:28;;;;;;;;;;;18.00;59.90;;;;;;5071419;28;1296;-69
2023/03/06 10:39:56;;;;;;;;;;;18.00;59.80;;;;;;5076266;28;1147;-69
2023/03/06 10:42:22;;;;;;;;;;;18.00;59.90;;;;;;5077069;28;1269;-69
2023/03/06 10:44:52;;;;;;;;;;;18.00;59.90;;;;;;5072185;28;867;-69
2023/03/06 10:47:28;;;;;;;;;;;18.00;59.90;;;;;;5073571;28;1411;-69
2023/03/06 10:50:00;;;;;;;;;;;17.90;59.80;;;;;;5045889;28;875;-69
2023/03/06 10:52:33;;;;;;;;;;;18.00;59.80;;;;;;5073952;28;1897;-69
2023/03/06 10:55:28;;;;;;;;;;;18.00;59.80;;;;;;5077033;28;875;-69
2023/03/06 10:57:53;;;;;;;;;;;18.00;59.80;;;;;;5038066;28;1284;-69
2023/03/06 11:00:29;;;;;;;;;;;18.00;59.80;;;;;;5078894;28;1522;-69
2023/03/06 11:03:05;;;;;;;;;;;18.00;59.70;;;;;;5059725;28;1878;-69
2023/03/06 11:05:30;;;;;;;;;;;18.00;59.70;;;;;;5048379;28;1401;-70
2023/03/06 11:07:58;;;;;;;;;;;18.00;59.70;;;;;;5072718;28;1292;-70
2023/03/06 11:10:23;;;;;;;;;;;18.00;59.70;;;;;;5046251;28;1585;-69
2023/03/06 11:13:01;;;;;;;;;;;18.00;59.60;;;;;;5044474;28;1993;-69
2023/03/06 11:15:27;;;;;;;;;;;18.00;59.60;;;;;;5043820;28;1896;-68
2023/03/06 11:17:53;;;;;;;;;;;18.00;59.60;;;;;;5044979;28;1416;-68
2023/03/06 11:20:20;;;;;;;;;;;18.00;59.60;;;;;;5044390;28;1410;-67
2023/03/06 11:22:47;;;;;;;;;;;18.00;59.60;;;;;;5070472;28;1475;-68
2023/03/06 11:25:13;;;;;;;;;;;18.00;59.50;;;;;;5071734;28;1870;-70
2023/03/06 11:27:41;;;;;;;;;;;18.10;59.60;;;;;;5072600;28;1365;-68
2023/03/06 11:30:14;;;;;;;;;;;18.10;59.60;;;;;;5072547;28;1329;-68
2023/03/06 11:32:40;;;;;;;;;;;18.10;59.60;;;;;;5041853;28;1961;-69
2023/03/06 11:35:08;;;;;;;;;;;18.10;59.50;;;;;;5043892;28;1208;-68
2023/03/06 11:37:52;;;;;;;;;;;18.00;59.50;;;;;;5072099;28;1194;-68
2023/03/06 11:40:31;;;;;;;;;;;18.10;59.60;;;;;;5043767;28;1218;-67
2023/03/06 11:42:56;;;;;;;;;;;18.10;59.60;;;;;;5043120;28;1402;-68
2023/03/06 11:45:22;;;;;;;;;;;18.10;59.50;;;;;;5040886;28;1327;-69
2023/03/06 11:47:57;;;;;;;;;;;18.10;59.50;;;;;;5038031;28;896;-69
2023/03/06 11:50:46;;;;;;;;;;;18.10;59.50;;;;;;5040461;28;852;-69
2023/03/06 11:53:15;;;;;;;;;;;18.10;59.50;;;;;;5023379;28;1284;-71
2023/03/06 11:55:56;;;;;;;;;;;18.10;59.50;;;;;;5041175;28;1435;-70
2023/03/06 11:58:21;;;;;;;;;;;18.10;59.50;;;;;;5045007;28;1351;-69
2023/03/06 12:00:56;;;;;;;;;;;18.10;59.40;;;;;;5042403;28;1333;-69
2023/03/06 12:03:27;;;;;;;;;;;18.10;59.40;;;;;;5041389;28;1272;-69
2023/03/06 12:06:00;;;;;;;;;;;18.10;59.40;;;;;;5038244;28;891;-68
2023/03/06 12:08:44;;;;;;;;;;;18.00;59.40;;;;;;5071874;28;820;-69
2023/03/06 12:11:23;;;;;;;;;;;18.00;59.40;;;;;;5038730;28;1902;-70
2023/03/06 12:13:51;;;;;;;;;;;18.00;59.40;;;;;;5041796;28;919;-68
2023/03/06 12:16:37;;;;;;;;;;;18.00;59.40;;;;;;5038683;28;816;-70
2023/03/06 12:19:18;;;;;;;;;;;18.00;59.40;;;;;;5039574;28;901;-68
2023/03/06 12:22:13;;;;;;;;;;;18.00;59.40;;;;;;5073010;28;1299;-71
2023/03/06 12:24:45;;;;;;;;;;;18.00;59.40;;;;;;5036545;28;1296;-72
2023/03/06 12:27:37;;;;;;;;;;;18.00;59.50;;;;;;5041216;28;848;-74
2023/03/06 12:30:21;;;;;;;;;;;18.00;59.50;;;;;;5040968;28;1023;-73
2023/03/06 12:32:46;;;;;;;;;;;18.00;59.50;;;;;;5038796;28;1971;-74
2023/03/06 12:35:18;;;;;;;;;;;18.00;59.50;;;;;;5040323;28;881;-75
2023/03/06 12:38:02;;;;;;;;;;;18.00;59.50;;;;;;5039033;28;1272;-75
2023/03/06 12:40:36;;;;;;;;;;;18.00;59.50;;;;;;5039198;28;1080;-74
2023/03/06 12:43:20;;;;;;;;;;;18.00;59.50;;;;;;5041486;28;1272;-75
2023/03/06 12:45:48;;;;;;;;;;;17.90;59.50;;;;;;5072456;28;1262;-75
2023/03/06 12:48:15;;;;;;;;;;;18.00;59.60;;;;;;5071808;28;801;-74
2023/03/06 12:50:43;;;;;;;;;;;18.00;59.60;;;;;;5040270;28;1902;-74
2023/03/06 12:53:27;;;;;;;;;;;17.90;59.60;;;;;;5043697;28;1265;-76
2023/03/06 12:55:52;;;;;;;;;;;17.90;59.60;;;;;;5075089;28;1239;-76
2023/03/06 12:58:30;;;;;;;;;;;17.90;59.60;;;;;;5072312;28;892;-69
2023/03/06 13:01:05;;;;;;;;;;;17.90;59.60;;;;;;5069630;28;1273;-67
2023/03/06 13:03:49;;;;;;;;;;;17.90;59.70;;;;;;5045154;28;1291;-68
2023/03/06 13:06:29;;;;;;;;;;;17.90;59.70;;;;;;5040604;28;892;-68
2023/03/06 13:09:07;;;;;;;;;;;17.90;59.80;;;;;;5059864;28;1439;-69
2023/03/06 13:12:08;;;;;;;;;;;17.90;59.70;;;;;;5070921;28;1965;-68
2023/03/06 13:14:37;;;;;;;;;;;17.90;59.80;;;;;;5038607;28;1110;-68
2023/03/06 13:17:17;;;;;;;;;;;17.90;59.80;;;;;;5039143;28;1145;-68
2023/03/06 13:19:43;;;;;;;;;;;17.80;59.80;;;;;;5036311;28;871;-68
2023/03/06 13:22:25;;;;;;;;;;;17.80;59.80;;;;;;5042912;28;1376;-67
2023/03/06 13:25:10;;;;;;;;;;;17.80;59.80;;;;;;5070666;28;789;-68
2023/03/06 13:27:46;;;;;;;;;;;17.80;59.80;;;;;;5072256;28;1541;-69
2023/03/06 13:30:26;;;;;;;;;;;17.80;59.90;;;;;;5036014;28;848;-69
2023/03/06 13:32:54;;;;;;;;;;;17.80;59.90;;;;;;5068579;28;1894;-69
2023/03/06 13:35:30;;;;;;;;;;;17.80;60.00;;;;;;5037743;28;892;-69
2023/03/06 13:37:56;;;;;;;;;;;17.80;60.00;;;;;;5040106;28;1261;-69
2023/03/06 13:40:32;;;;;;;;;;;17.80;60.70;;;;;;5072281;28;856;-69
2023/03/06 13:43:06;;;;;;;;;;;17.80;60.00;;;;;;5039228;28;1290;-70
2023/03/06 13:45:33;;;;;;;;;;;17.80;60.00;;;;;;5037529;28;804;-68
2023/03/06 13:47:59;;;;;;;;;;;17.70;60.00;;;;;;5072643;28;884;-69
2023/03/06 13:50:27;;;;;;;;;;;17.80;60.00;;;;;;5037808;28;871;-69
2023/03/06 13:53:00;;;;;;;;;;;17.80;60.00;;;;;;5037487;28;1906;-69
2023/03/06 13:55:25;;;;;;;;;;;17.80;60.00;;;;;;5069317;28;957;-69
2023/03/06 13:57:50;;;;;;;;;;;17.70;60.00;;;;;;5039262;28;991;-69
2023/03/06 14:00:22;;;;;;;;;;;17.80;60.10;;;;;;5037698;28;899;-70
2023/03/06 14:03:06;;;;;;;;;;;17.80;60.10;;;;;;5041310;28;1279;-70
2023/03/06 14:05:40;;;;;;;;;;;17.70;60.00;;;;;;5073212;28;1227;-70
2023/03/06 14:08:08;;;;;;;;;;;17.70;60.00;;;;;;5041447;28;824;-69
2023/03/06 14:10:34;;;;;;;;;;;17.70;60.00;;;;;;5062837;28;1280;-70
2023/03/06 14:13:04;;;;;;;;;;;17.70;60.00;;;;;;5041941;28;1926;-69
2023/03/06 14:15:40;;;;;;;;;;;17.70;60.00;;;;;;5074507;28;921;-69
2023/03/06 14:18:13;;;;;;;;;;;17.70;60.00;;;;;;5078479;28;886;-69
2023/03/06 14:20:41;;;;;;;;;;;17.70;60.00;;;;;;5071708;28;1105;-69
2023/03/06 14:23:13;;;;;;;;;;;17.70;60.00;;;;;;5076378;28;1680;-69
2023/03/06 14:25:39;;;;;;;;;;;17.70;60.00;;;;;;5042835;28;2102;-69
2023/03/06 14:28:04;;;;;;;;;;;17.70;59.90;;;;;;5074305;28;1380;-69
2023/03/06 14:30:30;;;;;;;;;;;17.70;59.90;;;;;;5042710;28;906;-70
2023/03/06 14:32:55;;;;;;;;;;;17.80;60.00;;;;;;5044375;28;1898;-69
2023/03/06 14:35:27;;;;;;;;;;;17.70;59.90;;;;;;5041307;28;813;-70
2023/03/06 14:37:54;;;;;;;;;;;17.80;59.90;;;;;;5043930;28;1323;-70
2023/03/06 14:40:20;;;;;;;;;;;17.70;59.80;;;;;;5039090;28;892;-70
2023/03/06 14:42:45;;;;;;;;;;;17.70;59.90;;;;;;5072503;28;1251;-70